createdAt,value
2018-11-21T00:00:54.821Z,98.20
2018-11-21T00:03:22.943Z,98.20
2018-11-21T00:05:51.055Z,98.10
2018-11-21T00:08:19.348Z,98.10
2018-11-21T00:10:47.677Z,98.60
2018-11-21T00:13:15.764Z,98.40
2018-11-21T00:15:43.812Z,98.20
2018-11-21T00:18:11.888Z,98.20
2018-11-21T00:20:39.947Z,98.40
2018-11-21T00:23:08.014Z,98.50
2018-11-21T00:25:36.085Z,98.40
2018-11-21T00:28:04.160Z,98.40
2018-11-21T00:30:32.556Z,98.40
2018-11-21T00:33:00.638Z,98.60
2018-11-21T00:35:28.700Z,98.90
2018-11-21T00:37:56.795Z,98.90
2018-11-21T00:40:24.869Z,98.70
2018-11-21T00:42:52.933Z,98.80
2018-11-21T00:45:21.006Z,98.60
2018-11-21T00:47:49.074Z,98.90
2018-11-21T00:50:17.140Z,98.80
2018-11-21T00:52:45.239Z,98.70
2018-11-21T00:55:13.436Z,98.80
2018-11-21T00:57:41.783Z,98.80
2018-11-21T01:00:11.051Z,98.70
2018-11-21T01:02:39.161Z,98.70
2018-11-21T01:05:07.505Z,98.70
2018-11-21T01:07:35.913Z,98.70
2018-11-21T01:10:04.317Z,98.60
2018-11-21T01:12:32.380Z,98.80
2018-11-21T01:15:00.465Z,98.80
2018-11-21T01:17:28.523Z,98.70
2018-11-21T01:19:56.603Z,99.20
2018-11-21T01:22:24.675Z,98.90
2018-11-21T01:24:52.755Z,98.90
2018-11-21T01:27:20.826Z,99.10
2018-11-21T01:29:48.939Z,99.00
2018-11-21T01:32:17.010Z,99.00
2018-11-21T01:34:45.082Z,98.70
2018-11-21T01:37:13.148Z,98.70
2018-11-21T01:39:41.223Z,98.60
2018-11-21T01:42:09.302Z,98.80
2018-11-21T01:44:37.359Z,98.90
2018-11-21T01:47:05.679Z,99.00
2018-11-21T01:49:33.769Z,99.20
2018-11-21T01:52:01.837Z,99.30
2018-11-21T01:54:29.905Z,99.10
2018-11-21T01:56:57.998Z,99.20
2018-11-21T01:59:26.075Z,99.10
2018-11-21T02:01:54.144Z,99.00
2018-11-21T02:04:22.484Z,98.80
2018-11-21T02:06:50.835Z,98.80
2018-11-21T02:09:18.908Z,99.00
2018-11-21T02:11:46.984Z,99.00
2018-11-21T02:14:15.391Z,99.20
2018-11-21T02:16:43.457Z,98.80
2018-11-21T02:19:11.539Z,99.00
2018-11-21T02:21:39.612Z,99.00
2018-11-21T02:24:07.701Z,98.90
2018-11-21T02:26:35.768Z,99.00
2018-11-21T02:29:03.852Z,99.10
2018-11-21T02:31:32.354Z,99.30
2018-11-21T02:34:00.439Z,99.50
2018-11-21T02:36:28.857Z,99.50
2018-11-21T02:38:56.939Z,99.50
2018-11-21T02:41:25.031Z,99.50
2018-11-21T02:43:53.379Z,99.60
2018-11-21T02:46:21.428Z,99.70
2018-11-21T02:48:49.933Z,99.70
2018-11-21T02:51:18.304Z,99.50
2018-11-21T02:53:46.613Z,99.40
2018-11-21T02:56:14.774Z,99.50
2018-11-21T02:58:43.106Z,99.50
2018-11-21T03:01:11.209Z,99.50
2018-11-21T03:03:39.295Z,99.30
2018-11-21T03:06:07.380Z,99.30
2018-11-21T03:08:35.705Z,99.30
2018-11-21T03:11:04.140Z,99.50
2018-11-21T03:13:32.234Z,99.40
2018-11-21T03:16:00.331Z,99.30
2018-11-21T03:18:28.529Z,99.90
2018-11-21T03:20:56.605Z,99.90
2018-11-21T03:23:24.667Z,99.80
2018-11-21T03:25:52.744Z,99.50
2018-11-21T03:28:20.822Z,99.50
2018-11-21T03:30:49.236Z,99.90
2018-11-21T03:33:17.324Z,99.60
2018-11-21T03:35:45.377Z,99.40
2018-11-21T03:38:13.438Z,99.60
2018-11-21T03:40:41.511Z,99.50
2018-11-21T03:43:09.627Z,99.60
2018-11-21T03:45:37.956Z,99.50
2018-11-21T03:48:06.046Z,99.60
2018-11-21T03:50:34.104Z,99.70
2018-11-21T03:53:02.189Z,99.70
2018-11-21T03:55:30.276Z,99.70
2018-11-21T03:57:58.616Z,99.80
2018-11-21T04:00:26.668Z,99.90
2018-11-21T04:02:54.730Z,99.90
2018-11-21T04:05:22.837Z,99.50
2018-11-21T04:07:50.962Z,99.30
2018-11-21T04:10:19.413Z,99.20
2018-11-21T04:12:47.522Z,99.20
2018-11-21T04:15:15.670Z,99.00
2018-11-21T04:17:43.739Z,99.00
2018-11-21T04:20:11.832Z,99.10
2018-11-21T04:22:40.069Z,99.10
2018-11-21T04:25:09.839Z,99.00
2018-11-21T04:27:38.185Z,98.90
2018-11-21T04:30:07.869Z,99.00
2018-11-21T04:32:35.971Z,99.00
2018-11-21T04:35:04.364Z,99.10
2018-11-21T04:37:32.476Z,99.10
2018-11-21T04:40:00.578Z,99.10
2018-11-21T04:42:28.743Z,99.00
2018-11-21T04:44:56.881Z,99.00
2018-11-21T04:47:24.961Z,99.00
2018-11-21T04:49:53.386Z,98.90
2018-11-21T04:52:21.479Z,99.10
2018-11-21T04:54:50.701Z,99.30
2018-11-21T04:57:18.791Z,99.30
2018-11-21T04:59:47.213Z,99.20
2018-11-21T05:02:15.797Z,99.20
2018-11-21T05:04:44.663Z,99.30
2018-11-21T05:07:13.060Z,99.20
2018-11-21T05:09:41.116Z,99.40
2018-11-21T05:12:09.235Z,99.50
2018-11-21T05:14:37.337Z,99.50
2018-11-21T05:17:06.061Z,99.50
2018-11-21T05:19:34.161Z,99.30
2018-11-21T05:22:02.291Z,99.30
2018-11-21T05:24:30.676Z,99.40
2018-11-21T05:26:59.035Z,99.50
2018-11-21T05:29:27.139Z,99.70
2018-11-21T05:31:55.545Z,99.70
2018-11-21T05:34:23.691Z,99.60
2018-11-21T05:36:51.792Z,99.50
2018-11-21T05:39:19.899Z,99.40
2018-11-21T05:41:48.328Z,99.40
2018-11-21T05:44:16.709Z,99.40
2018-11-21T05:46:44.783Z,99.40
2018-11-21T05:49:12.980Z,99.40
2018-11-21T05:51:41.066Z,99.30
2018-11-21T05:54:09.180Z,99.40
2018-11-21T05:56:37.263Z,99.40
2018-11-21T05:59:05.470Z,99.50
2018-11-21T06:01:33.558Z,99.60
2018-11-21T06:04:01.660Z,99.70
2018-11-21T06:06:29.761Z,99.60
2018-11-21T06:08:57.898Z,99.60
2018-11-21T06:11:26.010Z,99.60
2018-11-21T06:13:54.497Z,99.70
2018-11-21T06:16:22.902Z,99.60
2018-11-21T06:18:51.012Z,99.80
2018-11-21T06:21:19.421Z,99.90
2018-11-21T06:23:47.616Z,99.90
2018-11-21T06:26:15.717Z,99.90
2018-11-21T06:28:44.131Z,99.90
2018-11-21T06:31:12.230Z,99.90
2018-11-21T06:33:40.686Z,99.90
2018-11-21T06:36:08.883Z,99.90
2018-11-21T06:38:36.996Z,99.90
2018-11-21T06:41:05.520Z,99.90
2018-11-21T06:43:34.362Z,99.90
2018-11-21T06:46:02.803Z,99.90
2018-11-21T06:48:31.254Z,99.90
2018-11-21T06:51:00.273Z,99.90
2018-11-21T06:53:29.548Z,99.90
2018-11-21T06:55:57.644Z,99.80
2018-11-21T06:58:25.773Z,99.90
2018-11-21T07:00:55.014Z,99.70
2018-11-21T07:03:23.368Z,99.90
2018-11-21T07:05:51.474Z,99.90
2018-11-21T07:08:19.564Z,99.90
2018-11-21T07:10:47.901Z,99.90
2018-11-21T07:13:15.968Z,99.90
2018-11-21T07:15:44.363Z,99.90
2018-11-21T07:18:12.466Z,99.90
2018-11-21T07:20:40.537Z,99.90
2018-11-21T07:23:08.608Z,99.90
2018-11-21T07:25:36.663Z,99.90
2018-11-21T07:28:05.031Z,99.90
2018-11-21T07:30:33.084Z,99.90
2018-11-21T07:33:01.142Z,99.90
2018-11-21T07:35:29.218Z,99.90
2018-11-21T07:37:57.276Z,99.80
2018-11-21T07:40:25.703Z,99.90
2018-11-21T07:42:53.775Z,99.80
2018-11-21T07:45:21.844Z,99.80
2018-11-21T07:47:49.915Z,99.90
2018-11-21T07:50:19.580Z,99.80
2018-11-21T07:52:47.708Z,99.90
2018-11-21T07:55:15.804Z,99.90
2018-11-21T07:57:45.689Z,99.90
2018-11-21T08:01:20.595Z,99.80
2018-11-21T08:03:50.399Z,99.70
2018-11-21T08:06:30.240Z,99.90
2018-11-21T08:09:29.729Z,99.90
2018-11-21T08:12:17.016Z,99.70
2018-11-21T08:15:05.528Z,99.90
2018-11-21T08:17:45.272Z,99.50
2018-11-21T08:20:41.623Z,99.90
2018-11-21T08:23:29.192Z,99.90
2018-11-21T08:26:15.900Z,99.90
2018-11-21T08:28:43.918Z,99.90
2018-11-21T08:31:12.290Z,99.90
2018-11-21T08:33:40.380Z,99.90
2018-11-21T08:36:08.458Z,96.30
2018-11-21T08:38:36.540Z,94.70
2018-11-21T08:41:05.052Z,91.30
2018-11-21T08:43:33.130Z,90.10
2018-11-21T08:46:01.217Z,85.50
2018-11-21T08:48:29.304Z,86.70
2018-11-21T08:50:57.743Z,85.00
2018-11-21T08:53:25.852Z,79.20
2018-11-21T08:55:53.921Z,75.20
2018-11-21T08:58:22.006Z,77.00
2018-11-21T09:00:50.388Z,78.40
2018-11-21T09:03:18.463Z,77.20
2018-11-21T09:05:46.576Z,77.90
2018-11-21T09:08:14.651Z,77.50
2018-11-21T09:10:42.722Z,78.30
2018-11-21T09:13:10.848Z,78.30
2018-11-21T09:15:38.929Z,78.30
2018-11-21T09:18:07.674Z,78.90
2018-11-21T09:20:35.739Z,80.40
2018-11-21T09:23:03.834Z,77.30
2018-11-21T09:25:32.019Z,77.50
2018-11-21T09:28:00.116Z,76.80
2018-11-21T09:30:28.180Z,77.30
2018-11-21T09:32:57.181Z,76.70
2018-11-21T09:35:25.265Z,75.30
2018-11-21T09:37:53.336Z,75.30
2018-11-21T09:40:22.705Z,75.90
2018-11-21T09:42:52.239Z,73.80
2018-11-21T09:45:21.322Z,74.80
2018-11-21T09:47:49.381Z,73.40
2018-11-21T09:50:23.522Z,70.80
2018-11-21T09:52:50.960Z,71.00
2018-11-21T09:55:19.052Z,71.00
2018-11-21T09:57:47.132Z,68.20
2018-11-21T10:00:52.973Z,66.00
2018-11-21T10:03:23.224Z,65.30
2018-11-21T10:05:54.201Z,63.70
2018-11-21T10:08:46.922Z,61.90
2018-11-21T10:11:15.376Z,60.20
2018-11-21T10:13:43.875Z,60.10
2018-11-21T10:16:12.277Z,60.50
2018-11-21T10:18:41.825Z,58.80
2018-11-21T10:21:11.815Z,57.70
2018-11-21T10:23:40.571Z,57.60
2018-11-21T10:26:08.924Z,57.30
2018-11-21T10:28:37.492Z,55.40
2018-11-21T10:31:05.670Z,54.10
2018-11-21T10:33:33.944Z,53.00
2018-11-21T10:36:02.436Z,50.90
2018-11-21T10:38:30.548Z,50.40
2018-11-21T10:40:58.672Z,48.40
2018-11-21T10:43:28.458Z,47.50
2018-11-21T10:45:54.958Z,47.30
2018-11-21T10:48:23.079Z,45.60
2018-11-21T10:50:51.183Z,43.60
2018-11-21T10:53:19.298Z,44.40
2018-11-21T10:55:47.673Z,43.50
2018-11-21T10:58:16.225Z,44.00
2018-11-21T11:01:02.112Z,43.90
2018-11-21T11:03:35.699Z,43.10
2018-11-21T11:06:26.312Z,43.60
2018-11-21T11:09:14.003Z,45.20
2018-11-21T11:11:57.767Z,46.50
2018-11-21T11:14:54.124Z,48.30
2018-11-21T11:17:40.005Z,49.30
2018-11-21T11:20:40.686Z,49.90
2018-11-21T11:23:19.454Z,50.30
2018-11-21T11:25:58.887Z,49.90
2018-11-21T11:29:04.873Z,49.50
2018-11-21T11:31:51.380Z,50.50
2018-11-21T11:34:48.013Z,49.80
2018-11-21T11:37:38.020Z,50.50
2018-11-21T11:40:26.827Z,51.10
2018-11-21T11:43:14.182Z,51.50
2018-11-21T11:46:00.290Z,50.90
2018-11-21T11:48:46.468Z,49.50
2018-11-21T11:51:33.796Z,49.00
2018-11-21T11:54:20.009Z,47.30
2018-11-21T11:56:58.404Z,47.30
2018-11-21T11:59:44.825Z,46.20
2018-11-21T12:02:41.211Z,47.10
2018-11-21T12:05:31.474Z,47.30
2018-11-21T12:08:16.090Z,47.40
2018-11-21T12:10:55.221Z,48.20
2018-11-21T12:13:41.007Z,48.30
2018-11-21T12:16:26.913Z,49.00
2018-11-21T12:19:14.237Z,50.50
2018-11-21T12:22:04.679Z,49.90
2018-11-21T12:24:55.232Z,48.90
2018-11-21T12:27:41.149Z,48.60
2018-11-21T12:30:16.802Z,48.50
2018-11-21T12:33:07.776Z,47.90
2018-11-21T12:35:55.322Z,48.30
2018-11-21T12:38:48.332Z,48.20
2018-11-21T12:41:46.833Z,47.40
2018-11-21T12:44:26.378Z,47.60
2018-11-21T12:47:12.140Z,48.20
2018-11-21T12:50:08.550Z,48.90
2018-11-21T12:52:54.537Z,49.80
2018-11-21T12:55:31.189Z,49.50
2018-11-21T12:58:36.728Z,48.50
2018-11-21T13:01:18.222Z,48.50
2018-11-21T13:04:06.271Z,47.20
2018-11-21T13:06:43.662Z,47.60
2018-11-21T13:09:31.274Z,47.30
2018-11-21T13:12:18.351Z,47.10
2018-11-21T13:14:56.393Z,48.20
2018-11-21T13:17:52.618Z,47.00
2018-11-21T13:20:35.035Z,47.50
2018-11-21T13:23:16.854Z,47.30
2018-11-21T13:26:02.826Z,48.20
2018-11-21T13:28:56.275Z,47.80
2018-11-21T13:31:42.439Z,48.90
2018-11-21T13:34:28.333Z,48.80
2018-11-21T13:37:15.646Z,49.40
2018-11-21T13:40:04.558Z,49.00
2018-11-21T13:42:51.340Z,49.10
2018-11-21T13:45:37.902Z,49.70
2018-11-21T13:48:28.616Z,50.20
2018-11-21T13:51:14.817Z,50.10
2018-11-21T13:53:59.681Z,50.50
2018-11-21T13:56:27.937Z,50.40
2018-11-21T13:58:56.092Z,50.80
2018-11-21T14:01:24.519Z,51.20
2018-11-21T14:03:52.623Z,51.70
2018-11-21T14:06:20.807Z,52.40
2018-11-21T14:08:48.947Z,53.70
2018-11-21T14:11:17.070Z,54.70
2018-11-21T14:13:45.226Z,55.20
2018-11-21T14:16:13.330Z,56.80
2018-11-21T14:18:41.441Z,57.50
2018-11-21T14:21:09.666Z,58.50
2018-11-21T14:23:37.774Z,58.20
2018-11-21T14:26:06.433Z,58.80
2018-11-21T14:28:34.911Z,59.30
2018-11-21T14:31:03.028Z,59.60
2018-11-21T14:33:31.125Z,60.20
2018-11-21T14:35:59.250Z,61.00
2018-11-21T14:38:27.364Z,61.50
2018-11-21T14:40:55.503Z,61.40
2018-11-21T14:43:24.002Z,62.40
2018-11-21T14:45:52.762Z,62.50
2018-11-21T14:48:20.885Z,63.10
2018-11-21T14:50:49.016Z,63.50
2018-11-21T14:53:17.265Z,64.50
2018-11-21T14:55:45.414Z,64.70
2018-11-21T14:58:14.155Z,64.60
2018-11-21T15:00:42.576Z,65.40
2018-11-21T15:03:11.555Z,65.60
2018-11-21T15:05:39.634Z,66.00
2018-11-21T15:08:07.750Z,66.40
2018-11-21T15:10:35.901Z,66.30
2018-11-21T15:13:04.355Z,66.50
2018-11-21T15:15:32.480Z,66.90
2018-11-21T15:18:00.936Z,67.30
2018-11-21T15:20:29.982Z,67.60
2018-11-21T15:22:58.369Z,67.90
2018-11-21T15:25:26.494Z,67.90
2018-11-21T15:27:55.413Z,68.00
2018-11-21T15:30:28.488Z,68.70
2018-11-21T15:32:56.583Z,69.10
2018-11-21T15:35:24.835Z,69.90
2018-11-21T15:37:53.285Z,70.10
2018-11-21T15:40:22.739Z,70.00
2018-11-21T15:42:50.990Z,70.00
2018-11-21T15:45:21.013Z,70.80
2018-11-21T15:47:51.494Z,71.20
